Caneyville, Kentucky
Current Conditions -  °F | °C
As of 5:53 PM on Saturday 22 Nov 2014 (Local Time) from KBWG Reporting Station
Few Clouds Few Clouds  
Wind Chill: 57°   Ceiling: Unl
Heat Index: 57°   Visibility: 10mi
Dew Point: 30°   Wind: 3mph
Humidity: 36%   Direction: 160°SSE
Pressure: 30.12"   Gusts: NA
Location:  37.42°N, 86.49°W
Report Text: KBWG 222353Z AUTO 16003KT 10SM FEW090 14/M01 A3012 RMK AO2 SLP198 T01391011 10183 20128 56012
Loading
Personal Weather Stations






























Interactive Weather Map New forecast layout! Learn more

10-Day Weather Forecast

Advertisements
Track Severe Weather on mobile